Terminal Aerodrome Forecast (TAF)

TAF

Data at: 2025 UTC 19 Oct 2018

TAF for:NVSC (Sola/Vanua Lava Arpt, --, NV) issued at 1600 UTC 19 Oct 2018
Text:TAF NVSC 191600Z 1918/2018 VRB03KT 9999 SCT20 BKN045 INTER 1918/1924 8000 SHRA BKN018 OVC035
Forecast period:1800 UTC 19 October 2018 to 1800 UTC 20 October 2018
Forecast type:FROM: standard forecast or significant change
Winds:variable direction winds at 3 MPH (3 knots; 1.5 m/s)
Visibility:6 or more sm (10+ km)
Ceiling:4500 feet AGL
Clouds: broken clouds at 4500 feet AGL
Text:
Forecast period:1800 UTC 19 October 2018 to 0000 UTC 20 October 2018
Forecast type:TEMPORARY: The following changes expected for less than half the time period
Visibility: 5 sm ( 8 km)
Ceiling:1800 feet AGL
Clouds: broken clouds at 1800 feet AGL, overcast cloud deck at 3500 feet AGL
Weather:SHRA (rain showers)

TAF

Data at: 2025 UTC 19 Oct 2018

TAF for:NVSG (Longana Arpt, --, NV) issued at 1600 UTC 19 Oct 2018
Text:TAF NVSG 191600Z 1918/2018 11005KT 9999 SCT020 BKN040 INTER 1918/1924 9000 -SHRA BKN018
Forecast period:1800 UTC 19 October 2018 to 1800 UTC 20 October 2018
Forecast type:FROM: standard forecast or significant change
Winds:from the ESE (110 degrees) at 6 MPH (5 knots; 2.6 m/s)
Visibility:6 or more sm (10+ km)
Ceiling:4000 feet AGL
Clouds: scattered clouds at 2000 feet AGL, broken clouds at 4000 feet AGL
Text:
Forecast period:1800 UTC 19 October 2018 to 0000 UTC 20 October 2018
Forecast type:TEMPORARY: The following changes expected for less than half the time period
Visibility: 6 sm ( 9 km)
Ceiling:1800 feet AGL
Clouds: broken clouds at 1800 feet AGL
Weather:-SHRA (light rain showers)

TAF

Data at: 2025 UTC 19 Oct 2018

TAF for:NVSS (Santo/Pekoa Intl, --, NV) issued at 1600 UTC 19 Oct 2018
Text:TAF NVSS 191600Z 1918/2018 12006KT 9999 SCT020 BKN040 INTER 1918/1924 8000 SHRA BKN018 OVC035
Forecast period:1800 UTC 19 October 2018 to 1800 UTC 20 October 2018
Forecast type:FROM: standard forecast or significant change
Winds:from the ESE (120 degrees) at 7 MPH (6 knots; 3.1 m/s)
Visibility:6 or more sm (10+ km)
Ceiling:4000 feet AGL
Clouds: scattered clouds at 2000 feet AGL, broken clouds at 4000 feet AGL
Text:
Forecast period:1800 UTC 19 October 2018 to 0000 UTC 20 October 2018
Forecast type:TEMPORARY: The following changes expected for less than half the time period
Visibility: 5 sm ( 8 km)
Ceiling:1800 feet AGL
Clouds: broken clouds at 1800 feet AGL, overcast cloud deck at 3500 feet AGL
Weather:SHRA (rain showers)

TAF

Data at: 2025 UTC 19 Oct 2018

TAF for:NVSL (Malekula/Lamap, --, NV) issued at 1600 UTC 19 Oct 2018
Text:TAF NVSL 191600Z 1918/2018 10005KT 9999 BKN020 INTER 1918/1924 9000 -SHRA BKN018
Forecast period:1800 UTC 19 October 2018 to 1800 UTC 20 October 2018
Forecast type:FROM: standard forecast or significant change
Winds:from the E (100 degrees) at 6 MPH (5 knots; 2.6 m/s)
Visibility:6 or more sm (10+ km)
Ceiling:2000 feet AGL
Clouds: broken clouds at 2000 feet AGL
Text:
Forecast period:1800 UTC 19 October 2018 to 0000 UTC 20 October 2018
Forecast type:TEMPORARY: The following changes expected for less than half the time period
Visibility: 6 sm ( 9 km)
Ceiling:1800 feet AGL
Clouds: broken clouds at 1800 feet AGL
Weather:-SHRA (light rain showers)

TAF

Data at: 2025 UTC 19 Oct 2018

TAF for:NVSP (Norsup Arpt, --, NV) issued at 1600 UTC 19 Oct 2018
Text:TAF NVSP 191600Z 1918/2018 12006KT 9999 SCT020 BKN040 INTER 1918/1924 9000 -SHRA BKN018
Forecast period:1800 UTC 19 October 2018 to 1800 UTC 20 October 2018
Forecast type:FROM: standard forecast or significant change
Winds:from the ESE (120 degrees) at 7 MPH (6 knots; 3.1 m/s)
Visibility:6 or more sm (10+ km)
Ceiling:4000 feet AGL
Clouds: scattered clouds at 2000 feet AGL, broken clouds at 4000 feet AGL
Text:
Forecast period:1800 UTC 19 October 2018 to 0000 UTC 20 October 2018
Forecast type:TEMPORARY: The following changes expected for less than half the time period
Visibility: 6 sm ( 9 km)
Ceiling:1800 feet AGL
Clouds: broken clouds at 1800 feet AGL
Weather:-SHRA (light rain showers)

TAF

Data at: 2025 UTC 19 Oct 2018

TAF for:NVVV (Efate/Bauerfield Int, --, NV) issued at 1600 UTC 19 Oct 2018
Text:TAF NVVV 191600Z 1918/2018 09005KT 9999 SCT020 BKN040 INTER 1918/1924 9000 SHRA BKN018 OVC035
Forecast period:1800 UTC 19 October 2018 to 1800 UTC 20 October 2018
Forecast type:FROM: standard forecast or significant change
Winds:from the E (90 degrees) at 6 MPH (5 knots; 2.6 m/s)
Visibility:6 or more sm (10+ km)
Ceiling:4000 feet AGL
Clouds: scattered clouds at 2000 feet AGL, broken clouds at 4000 feet AGL
Text:
Forecast period:1800 UTC 19 October 2018 to 0000 UTC 20 October 2018
Forecast type:TEMPORARY: The following changes expected for less than half the time period
Visibility: 6 sm ( 9 km)
Ceiling:1800 feet AGL
Clouds: broken clouds at 1800 feet AGL, overcast cloud deck at 3500 feet AGL
Weather:SHRA (rain showers)

TAF

Data at: 2025 UTC 19 Oct 2018

TAF for:NVVW (Tanna Arpt, --, NV) issued at 1600 UTC 19 Oct 2018
Text:TAF NVVW 191600Z 1918/2018 10005KT 9999 FEW025 INTER 1918/1924 9000 -SHRA SCT018
Forecast period:1800 UTC 19 October 2018 to 1800 UTC 20 October 2018
Forecast type:FROM: standard forecast or significant change
Winds:from the E (100 degrees) at 6 MPH (5 knots; 2.6 m/s)
Visibility:6 or more sm (10+ km)
Ceiling:at least 12,000 feet AGL
Clouds: few clouds at 2500 feet AGL
Text:
Forecast period:1800 UTC 19 October 2018 to 0000 UTC 20 October 2018
Forecast type:TEMPORARY: The following changes expected for less than half the time period
Visibility: 6 sm ( 9 km)
Ceiling:at least 12,000 feet AGL
Clouds: scattered clouds at 1800 feet AGL
Weather:-SHRA (light rain showers)

TAF

Data at: 2025 UTC 19 Oct 2018

TAF for:NVVA (Aneityum/Mystery Isl, --, NV) issued at 1600 UTC 19 Oct 2018
Text:TAF NVVA 191600Z 1918/2018 10005KT 9999 SCT020 INTER 1918/1924 9000 -SHRA BKN018
Forecast period:1800 UTC 19 October 2018 to 1800 UTC 20 October 2018
Forecast type:FROM: standard forecast or significant change
Winds:from the E (100 degrees) at 6 MPH (5 knots; 2.6 m/s)
Visibility:6 or more sm (10+ km)
Ceiling:at least 12,000 feet AGL
Clouds: scattered clouds at 2000 feet AGL
Text:
Forecast period:1800 UTC 19 October 2018 to 0000 UTC 20 October 2018
Forecast type:TEMPORARY: The following changes expected for less than half the time period
Visibility: 6 sm ( 9 km)
Ceiling:1800 feet AGL
Clouds: broken clouds at 1800 feet AGL
Weather:-SHRA (light rain showers)

TAF

Data at: 2025 UTC 19 Oct 2018

TAF NVVV 191600Z 1918/2018 09005KT 9999 SCT020 BKN040 INTER 1918/1924 9000 SHRA BKN018 OVC035
TAF NVSC 191600Z 1918/2018 VRB03KT 9999 SCT20 BKN045 INTER 1918/1924 8000 SHRA BKN018 OVC035
TAF NVSG 191600Z 1918/2018 11005KT 9999 SCT020 BKN040 INTER 1918/1924 9000 -SHRA BKN018
TAF NVSS 191600Z 1918/2018 12006KT 9999 SCT020 BKN040 INTER 1918/1924 8000 SHRA BKN018 OVC035
TAF NVSL 191600Z 1918/2018 10005KT 9999 BKN020 INTER 1918/1924 9000 -SHRA BKN018
TAF NVSP 191600Z 1918/2018 12006KT 9999 SCT020 BKN040 INTER 1918/1924 9000 -SHRA BKN018
TAF NVVW 191600Z 1918/2018 10005KT 9999 FEW025 INTER 1918/1924 9000 -SHRA SCT018
TAF NVVA 191600Z 1918/2018 10005KT 9999 SCT020 INTER 1918/1924 9000 -SHRA BKN018